Time;durP1;ratioP1;P1;durP2;ratioP2;P2;SDS_P1;SDS_P2;PMS_P1;PMS_P2;Temp;Humidity;BMP_temperature;BMP_pressure;BME280_temperature;BME280_humidity;BME280_pressure;Samples;Min_cycle;Max_cycle;Signal;HPM_P1;HPM_P2
2023/07/27 00:01:39;;;;;;;272.80;252.82;;;;;;;;;;4990769;28;20049;-63
2023/07/27 00:04:05;;;;;;;271.17;251.38;;;;;;;;;;4987691;28;20093;-63
2023/07/27 00:06:32;;;;;;;269.00;249.45;;;;;;;;;;5004989;28;20037;-63
2023/07/27 00:09:00;;;;;;;267.08;246.88;;;;;;;;;;5005886;28;20044;-61
2023/07/27 00:11:27;;;;;;;278.95;256.00;;;;;;;;;;4999810;28;20778;-61
2023/07/27 00:13:53;;;;;;;279.52;255.75;;;;;;;;;;5009555;28;20045;-61
2023/07/27 00:16:20;;;;;;;278.85;257.50;;;;;;;;;;5001265;28;20045;-63
2023/07/27 00:18:47;;;;;;;280.10;256.90;;;;;;;;;;5007111;28;20050;-61
2023/07/27 00:21:13;;;;;;;277.95;254.20;;;;;;;;;;5009030;28;20530;-61
2023/07/27 00:23:40;;;;;;;288.63;261.77;;;;;;;;;;5009256;28;20495;-63
2023/07/27 00:26:06;;;;;;;255.57;237.23;;;;;;;;;;5009770;28;20500;-61
2023/07/27 00:28:33;;;;;;;260.30;242.50;;;;;;;;;;5008892;28;20067;-61
2023/07/27 00:30:59;;;;;;;273.23;250.43;;;;;;;;;;4990655;28;20037;-61
2023/07/27 00:33:26;;;;;;;264.08;243.80;;;;;;;;;;4990826;28;20069;-60
2023/07/27 00:35:57;;;;;;;267.00;246.77;;;;;;;;;;5006157;28;20550;-62
2023/07/27 00:38:25;;;;;;;269.25;247.90;;;;;;;;;;4992231;28;20053;-65
2023/07/27 00:40:52;;;;;;;272.33;250.15;;;;;;;;;;4990809;28;20049;-60
2023/07/27 00:43:18;;;;;;;265.25;244.90;;;;;;;;;;4998510;28;20057;-61
2023/07/27 00:45:46;;;;;;;268.83;248.45;;;;;;;;;;5007449;28;20049;-60
2023/07/27 00:48:13;;;;;;;266.40;246.70;;;;;;;;;;5008470;28;20046;-62
2023/07/27 00:50:40;;;;;;;291.23;263.25;;;;;;;;;;4999485;28;20181;-63
2023/07/27 00:53:08;;;;;;;269.08;248.48;;;;;;;;;;4989403;28;20385;-60
2023/07/27 00:55:35;;;;;;;260.73;242.38;;;;;;;;;;5008112;28;20045;-60
2023/07/27 00:58:02;;;;;;;264.55;244.98;;;;;;;;;;5008913;28;20081;-60
2023/07/27 01:00:31;;;;;;;268.98;247.00;;;;;;;;;;4990010;28;20060;-61
2023/07/27 01:02:58;;;;;;;269.42;246.98;;;;;;;;;;4974909;28;20058;-64
2023/07/27 01:05:25;;;;;;;269.88;249.20;;;;;;;;;;4975057;28;20519;-62
2023/07/27 01:07:51;;;;;;;272.98;249.70;;;;;;;;;;5009312;28;20042;-61
2023/07/27 01:10:22;;;;;;;267.27;246.65;;;;;;;;;;4995286;28;20377;-61
2023/07/27 01:12:54;;;;;;;268.15;245.95;;;;;;;;;;5008609;28;20041;-62
2023/07/27 01:15:24;;;;;;;262.92;242.00;;;;;;;;;;5008614;28;20038;-61
2023/07/27 01:17:55;;;;;;;259.27;237.95;;;;;;;;;;5003047;28;20490;-60
2023/07/27 01:20:28;;;;;;;263.63;241.40;;;;;;;;;;4994489;28;20821;-60
2023/07/27 01:22:58;;;;;;;247.90;227.90;;;;;;;;;;5012325;28;20048;-59
2023/07/27 01:25:43;;;;;;;255.90;234.20;;;;;;;;;;5000888;28;20446;-61
2023/07/27 01:28:16;;;;;;;262.48;243.68;;;;;;;;;;5009389;28;20042;-60
2023/07/27 01:30:43;;;;;;;263.00;240.70;;;;;;;;;;5001045;28;20514;-60
2023/07/27 01:33:11;;;;;;;246.65;227.82;;;;;;;;;;5010521;28;20042;-61
2023/07/27 01:35:43;;;;;;;262.48;238.75;;;;;;;;;;5010052;28;20056;-62
2023/07/27 01:38:09;;;;;;;247.77;227.60;;;;;;;;;;4991328;28;20053;-62
2023/07/27 01:40:39;;;;;;;241.68;224.10;;;;;;;;;;5011470;28;20068;-64
2023/07/27 01:43:06;;;;;;;250.23;230.63;;;;;;;;;;5001567;28;20451;-61
2023/07/27 01:45:33;;;;;;;247.60;228.27;;;;;;;;;;4977692;28;20049;-61
2023/07/27 01:48:00;;;;;;;254.63;234.20;;;;;;;;;;5008788;28;20510;-62
2023/07/27 01:50:27;;;;;;;248.63;229.23;;;;;;;;;;4994094;28;20049;-69
2023/07/27 01:52:55;;;;;;;266.60;241.52;;;;;;;;;;5011335;28;20057;-60
2023/07/27 01:55:22;;;;;;;245.32;226.98;;;;;;;;;;5001381;28;20046;-61
2023/07/27 01:57:49;;;;;;;251.75;231.85;;;;;;;;;;4993711;28;20108;-60
2023/07/27 02:03:21;;;;;;;182.05;163.88;;;;;;;;;;5042493;23;20076;-65
2023/07/27 02:05:48;;;;;;;187.05;167.13;;;;;;;;;;5001130;28;20069;-64
2023/07/27 02:08:16;;;;;;;174.35;159.85;;;;;;;;;;5000914;28;20046;-64
2023/07/27 02:10:47;;;;;;;182.40;165.05;;;;;;;;;;4988329;28;20474;-61
2023/07/27 02:13:29;;;;;;;171.98;155.65;;;;;;;;;;4987781;28;20053;-64
2023/07/27 02:16:01;;;;;;;187.10;167.10;;;;;;;;;;4985379;28;20057;-63
2023/07/27 02:18:29;;;;;;;178.77;162.90;;;;;;;;;;4990768;28;20046;-65
2023/07/27 02:20:55;;;;;;;188.52;170.15;;;;;;;;;;5000806;28;20448;-66
2023/07/27 02:23:23;;;;;;;187.43;167.20;;;;;;;;;;5000185;28;20038;-65
2023/07/27 02:25:50;;;;;;;186.27;167.90;;;;;;;;;;4988579;28;20053;-62
2023/07/27 02:28:16;;;;;;;181.32;164.57;;;;;;;;;;5008288;28;20084;-64
2023/07/27 02:30:43;;;;;;;183.18;165.98;;;;;;;;;;5017660;28;20066;-63
2023/07/27 02:33:09;;;;;;;181.65;166.00;;;;;;;;;;4991050;28;20062;-61
2023/07/27 02:35:37;;;;;;;194.10;175.70;;;;;;;;;;4988689;28;20038;-65
2023/07/27 02:38:04;;;;;;;184.20;166.90;;;;;;;;;;4981729;28;20054;-67
2023/07/27 02:40:32;;;;;;;179.20;165.25;;;;;;;;;;4990990;28;20038;-64
2023/07/27 02:42:58;;;;;;;195.80;176.25;;;;;;;;;;4987410;28;20042;-65
2023/07/27 02:45:25;;;;;;;192.85;174.93;;;;;;;;;;4980149;28;20465;-65
2023/07/27 02:47:52;;;;;;;191.82;172.98;;;;;;;;;;4983338;28;20042;-65
2023/07/27 02:50:20;;;;;;;194.50;176.70;;;;;;;;;;5000317;28;20141;-64
2023/07/27 02:53:08;;;;;;;187.60;171.38;;;;;;;;;;4988814;28;20046;-65
2023/07/27 02:55:38;;;;;;;179.73;165.25;;;;;;;;;;4989979;28;20499;-64
2023/07/27 02:58:05;;;;;;;193.23;175.40;;;;;;;;;;4981395;28;20046;-65
2023/07/27 03:00:34;;;;;;;184.32;169.57;;;;;;;;;;4985099;28;20401;-60
2023/07/27 03:03:01;;;;;;;187.88;169.70;;;;;;;;;;4989773;28;20054;-64
2023/07/27 03:05:28;;;;;;;192.52;172.75;;;;;;;;;;5014966;28;20062;-65
2023/07/27 03:07:54;;;;;;;187.95;170.93;;;;;;;;;;4999911;28;20050;-63
2023/07/27 03:10:25;;;;;;;190.80;173.00;;;;;;;;;;4976568;28;20101;-61
2023/07/27 03:12:52;;;;;;;195.48;174.55;;;;;;;;;;4990993;28;20049;-63
2023/07/27 03:15:18;;;;;;;187.65;170.82;;;;;;;;;;4990910;28;20399;-64
2023/07/27 03:17:45;;;;;;;206.27;178.18;;;;;;;;;;4997590;28;20101;-64
2023/07/27 03:20:12;;;;;;;186.85;168.00;;;;;;;;;;4995136;28;20054;-64
2023/07/27 03:22:38;;;;;;;182.15;165.18;;;;;;;;;;4978180;28;20054;-67
2023/07/27 03:25:05;;;;;;;181.15;166.30;;;;;;;;;;4982363;28;20050;-64
2023/07/27 03:27:32;;;;;;;199.93;181.60;;;;;;;;;;4990733;28;20073;-65
2023/07/27 03:29:58;;;;;;;190.25;171.75;;;;;;;;;;5000652;28;20056;-65
2023/07/27 03:32:25;;;;;;;197.60;177.32;;;;;;;;;;4999302;28;20050;-66
2023/07/27 03:34:51;;;;;;;194.80;175.07;;;;;;;;;;4999281;28;20555;-65
2023/07/27 03:37:18;;;;;;;194.20;173.68;;;;;;;;;;4977215;28;20841;-65
2023/07/27 03:39:45;;;;;;;190.77;171.63;;;;;;;;;;4985845;28;20061;-65
2023/07/27 03:42:11;;;;;;;190.00;170.85;;;;;;;;;;4978439;28;20054;-64
2023/07/27 03:44:38;;;;;;;238.43;188.07;;;;;;;;;;4995209;28;20050;-64
2023/07/27 03:47:05;;;;;;;201.30;174.25;;;;;;;;;;4988702;28;20572;-64
2023/07/27 03:49:33;;;;;;;195.02;174.38;;;;;;;;;;4981567;28;20097;-64
2023/07/27 03:51:59;;;;;;;186.77;169.80;;;;;;;;;;4997377;28;20043;-64
2023/07/27 03:54:26;;;;;;;189.80;169.73;;;;;;;;;;4979598;28;20761;-64
2023/07/27 03:56:53;;;;;;;197.52;175.32;;;;;;;;;;4982780;28;20061;-68
2023/07/27 03:59:19;;;;;;;190.38;171.70;;;;;;;;;;4988426;28;20582;-65
2023/07/27 04:01:46;;;;;;;178.63;163.48;;;;;;;;;;4990623;28;20054;-64
2023/07/27 04:04:13;;;;;;;201.20;182.63;;;;;;;;;;4983772;28;20057;-65
2023/07/27 04:06:41;;;;;;;208.63;190.35;;;;;;;;;;4972580;28;20064;-64
2023/07/27 04:09:08;;;;;;;207.02;185.48;;;;;;;;;;4977558;28;20046;-65
2023/07/27 04:11:35;;;;;;;209.60;188.63;;;;;;;;;;4991032;28;20487;-64
2023/07/27 04:14:01;;;;;;;210.00;189.98;;;;;;;;;;5002291;28;20476;-60
2023/07/27 04:16:29;;;;;;;219.13;199.20;;;;;;;;;;4999355;28;20039;-64
2023/07/27 04:18:56;;;;;;;210.80;194.40;;;;;;;;;;4988778;28;20053;-63
2023/07/27 04:21:23;;;;;;;209.57;190.80;;;;;;;;;;4980117;28;20050;-62
2023/07/27 04:23:50;;;;;;;217.07;196.90;;;;;;;;;;5014769;28;20053;-63
2023/07/27 04:26:17;;;;;;;201.73;184.90;;;;;;;;;;4990482;28;20049;-65
2023/07/27 04:28:43;;;;;;;210.25;189.98;;;;;;;;;;4990082;28;20054;-64
2023/07/27 04:31:10;;;;;;;203.07;188.90;;;;;;;;;;4998999;28;20089;-64
2023/07/27 04:33:37;;;;;;;202.18;185.00;;;;;;;;;;4999641;28;20089;-66
2023/07/27 04:36:03;;;;;;;213.55;194.27;;;;;;;;;;4990070;28;24001;-61
2023/07/27 04:38:30;;;;;;;210.45;194.38;;;;;;;;;;4975054;28;20053;-65
2023/07/27 04:40:57;;;;;;;204.85;184.85;;;;;;;;;;4995943;28;20506;-64
2023/07/27 04:43:24;;;;;;;193.48;176.20;;;;;;;;;;4986940;28;20049;-64
2023/07/27 04:45:50;;;;;;;197.27;178.05;;;;;;;;;;4967163;28;20389;-65
2023/07/27 04:48:17;;;;;;;198.25;181.15;;;;;;;;;;5002517;28;20026;-64
2023/07/27 04:50:44;;;;;;;244.50;200.55;;;;;;;;;;4993776;28;20053;-65
2023/07/27 04:53:10;;;;;;;198.82;182.13;;;;;;;;;;4976722;28;20054;-65
2023/07/27 04:55:37;;;;;;;207.95;189.60;;;;;;;;;;5003225;28;20121;-64
2023/07/27 04:58:04;;;;;;;213.65;193.55;;;;;;;;;;5006942;28;20046;-66
2023/07/27 05:00:30;;;;;;;223.10;203.43;;;;;;;;;;5003121;28;20034;-65
2023/07/27 05:02:57;;;;;;;232.95;211.27;;;;;;;;;;5002518;28;20058;-65
2023/07/27 05:05:24;;;;;;;243.48;220.95;;;;;;;;;;5002625;28;20054;-69
2023/07/27 05:07:50;;;;;;;235.30;214.90;;;;;;;;;;5002474;28;20054;-65
2023/07/27 05:10:17;;;;;;;243.57;224.35;;;;;;;;;;5001682;28;20038;-62
2023/07/27 05:12:43;;;;;;;248.73;226.85;;;;;;;;;;5006739;28;20042;-65
2023/07/27 05:15:10;;;;;;;257.50;235.98;;;;;;;;;;5002891;28;20515;-64
2023/07/27 05:17:37;;;;;;;261.05;236.27;;;;;;;;;;5002548;28;20069;-66
2023/07/27 05:20:04;;;;;;;271.67;247.98;;;;;;;;;;5004475;28;20101;-65
2023/07/27 05:22:31;;;;;;;282.00;258.50;;;;;;;;;;5003288;28;20492;-66
2023/07/27 05:24:57;;;;;;;283.40;258.30;;;;;;;;;;4999470;28;20049;-64
2023/07/27 05:27:24;;;;;;;288.75;262.35;;;;;;;;;;5025096;28;20054;-64
2023/07/27 05:29:51;;;;;;;283.52;257.30;;;;;;;;;;4993174;28;20143;-66
2023/07/27 05:32:17;;;;;;;275.67;253.70;;;;;;;;;;5011723;28;20045;-63
2023/07/27 05:34:44;;;;;;;292.65;270.20;;;;;;;;;;5009525;28;20034;-65
2023/07/27 05:37:11;;;;;;;285.83;262.80;;;;;;;;;;4992845;28;20050;-65
2023/07/27 05:39:40;;;;;;;298.42;273.17;;;;;;;;;;5004931;28;20042;-66
2023/07/27 05:42:06;;;;;;;307.38;279.65;;;;;;;;;;5003563;28;20499;-66
2023/07/27 05:44:33;;;;;;;299.15;275.50;;;;;;;;;;5002170;28;20078;-73
2023/07/27 05:47:02;;;;;;;294.42;268.15;;;;;;;;;;5003908;28;20054;-69
2023/07/27 05:49:29;;;;;;;302.25;275.67;;;;;;;;;;5002987;28;20045;-67
2023/07/27 05:51:55;;;;;;;300.83;273.75;;;;;;;;;;5001316;28;20045;-63
2023/07/27 05:54:22;;;;;;;293.90;266.52;;;;;;;;;;5002064;28;20064;-67
2023/07/27 05:56:49;;;;;;;310.88;271.95;;;;;;;;;;5001104;28;20124;-67
2023/07/27 05:59:15;;;;;;;286.13;259.95;;;;;;;;;;5003820;28;20104;-64
2023/07/27 06:01:42;;;;;;;285.00;262.90;;;;;;;;;;5002082;28;20404;-67
2023/07/27 06:04:09;;;;;;;294.63;268.05;;;;;;;;;;4999012;28;20065;-69
2023/07/27 06:06:36;;;;;;;303.27;277.17;;;;;;;;;;5000800;28;20041;-64
2023/07/27 06:09:03;;;;;;;308.88;277.40;;;;;;;;;;5000635;28;20045;-67
2023/07/27 06:11:30;;;;;;;286.38;260.52;;;;;;;;;;4998113;28;20105;-70
2023/07/27 06:13:57;;;;;;;306.70;278.02;;;;;;;;;;5004187;28;20034;-68
2023/07/27 06:16:24;;;;;;;312.13;284.05;;;;;;;;;;4999041;28;20046;-65
2023/07/27 06:18:51;;;;;;;311.45;280.45;;;;;;;;;;5000253;28;20046;-64
2023/07/27 06:21:17;;;;;;;292.20;266.20;;;;;;;;;;5004422;28;20073;-62
2023/07/27 06:23:44;;;;;;;306.38;277.75;;;;;;;;;;5000642;28;20038;-64
2023/07/27 06:26:11;;;;;;;287.23;263.98;;;;;;;;;;4997077;28;20109;-65
2023/07/27 06:28:37;;;;;;;285.80;260.77;;;;;;;;;;5005383;28;20042;-63
2023/07/27 06:31:04;;;;;;;278.27;254.73;;;;;;;;;;5002381;28;20081;-68
2023/07/27 06:33:30;;;;;;;285.90;261.83;;;;;;;;;;5004067;28;20093;-67
2023/07/27 06:35:57;;;;;;;277.38;255.23;;;;;;;;;;5001638;28;20337;-69
2023/07/27 06:38:23;;;;;;;270.38;247.52;;;;;;;;;;5000161;28;20050;-70
2023/07/27 06:40:50;;;;;;;292.23;268.40;;;;;;;;;;4988933;28;20105;-67
2023/07/27 06:43:17;;;;;;;283.90;259.20;;;;;;;;;;5005211;28;20503;-66
2023/07/27 06:45:43;;;;;;;275.40;252.10;;;;;;;;;;5002556;28;20109;-66
2023/07/27 06:48:10;;;;;;;269.10;246.55;;;;;;;;;;5003177;28;20135;-67
2023/07/27 06:50:37;;;;;;;290.88;261.23;;;;;;;;;;4999752;28;20049;-68
2023/07/27 06:53:04;;;;;;;286.77;263.10;;;;;;;;;;4999731;28;20062;-69
2023/07/27 06:55:30;;;;;;;289.42;265.75;;;;;;;;;;4999872;28;20038;-65
2023/07/27 06:57:57;;;;;;;305.95;277.92;;;;;;;;;;5004654;28;20042;-70
2023/07/27 07:00:24;;;;;;;312.20;284.52;;;;;;;;;;5000662;28;20058;-67
2023/07/27 07:02:51;;;;;;;310.75;279.20;;;;;;;;;;5000074;28;20058;-68
2023/07/27 07:05:18;;;;;;;311.85;284.25;;;;;;;;;;4999239;28;20043;-63
2023/07/27 07:07:44;;;;;;;295.77;270.92;;;;;;;;;;5001393;28;20034;-68
2023/07/27 07:10:11;;;;;;;308.83;283.05;;;;;;;;;;4997087;28;20046;-66
2023/07/27 07:12:38;;;;;;;334.27;304.80;;;;;;;;;;5003384;28;20038;-70
2023/07/27 07:15:05;;;;;;;335.48;307.23;;;;;;;;;;5000948;28;20038;-69
2023/07/27 07:17:32;;;;;;;316.35;290.67;;;;;;;;;;5003201;28;20109;-69
2023/07/27 07:19:59;;;;;;;330.85;299.90;;;;;;;;;;5000202;28;20128;-67
2023/07/27 07:22:25;;;;;;;314.80;286.30;;;;;;;;;;4999776;28;20050;-64
2023/07/27 07:24:52;;;;;;;320.42;290.83;;;;;;;;;;4998782;28;20089;-68
2023/07/27 07:27:19;;;;;;;326.98;298.88;;;;;;;;;;5003654;28;20049;-68
2023/07/27 07:29:45;;;;;;;310.75;278.67;;;;;;;;;;4990635;28;20054;-67
2023/07/27 07:32:12;;;;;;;291.88;266.65;;;;;;;;;;5001620;28;20057;-68
2023/07/27 07:34:38;;;;;;;286.17;260.88;;;;;;;;;;5000307;28;20046;-68
2023/07/27 07:37:05;;;;;;;287.08;264.23;;;;;;;;;;4999215;28;20034;-68
2023/07/27 07:39:31;;;;;;;296.77;266.75;;;;;;;;;;4999663;28;20038;-65
2023/07/27 07:42:00;;;;;;;290.80;265.73;;;;;;;;;;4983303;28;20077;-68
2023/07/27 07:44:26;;;;;;;289.05;263.40;;;;;;;;;;5001779;28;20096;-66
2023/07/27 07:46:53;;;;;;;308.95;282.83;;;;;;;;;;5002410;28;20116;-69
2023/07/27 07:49:19;;;;;;;295.20;269.13;;;;;;;;;;5000238;28;20058;-68
2023/07/27 07:51:46;;;;;;;291.67;263.83;;;;;;;;;;5001644;28;20047;-68
2023/07/27 07:54:12;;;;;;;293.63;262.05;;;;;;;;;;4999543;28;20038;-68
2023/07/27 07:56:39;;;;;;;279.75;252.20;;;;;;;;;;4998160;28;20074;-68
2023/07/27 07:59:06;;;;;;;269.30;247.70;;;;;;;;;;5000626;28;20120;-69
2023/07/27 08:01:32;;;;;;;297.30;270.48;;;;;;;;;;5000976;28;20456;-69
2023/07/27 08:03:59;;;;;;;300.50;274.92;;;;;;;;;;5000063;28;20112;-68
2023/07/27 08:06:26;;;;;;;289.05;263.55;;;;;;;;;;5000562;28;20038;-69
2023/07/27 08:08:52;;;;;;;297.02;270.38;;;;;;;;;;4998555;28;20047;-69
2023/07/27 08:11:19;;;;;;;289.92;264.33;;;;;;;;;;4997456;28;20053;-65
2023/07/27 08:13:45;;;;;;;267.77;243.18;;;;;;;;;;5000588;28;20555;-67
2023/07/27 08:16:12;;;;;;;267.98;244.48;;;;;;;;;;5000237;28;20515;-68
2023/07/27 08:18:38;;;;;;;264.63;241.32;;;;;;;;;;4997701;28;20042;-67
2023/07/27 08:21:05;;;;;;;291.00;266.85;;;;;;;;;;4999993;28;20073;-63
2023/07/27 08:23:32;;;;;;;270.92;252.50;;;;;;;;;;4988234;28;20129;-71
2023/07/27 08:26:00;;;;;;;272.45;249.43;;;;;;;;;;4995683;28;20060;-68
2023/07/27 08:28:27;;;;;;;293.70;268.20;;;;;;;;;;4997106;28;20112;-70
2023/07/27 08:30:53;;;;;;;286.27;261.52;;;;;;;;;;5002053;28;20050;-69
2023/07/27 08:33:20;;;;;;;270.63;249.43;;;;;;;;;;4998818;28;20066;-65
2023/07/27 08:35:47;;;;;;;295.48;264.23;;;;;;;;;;4998417;28;20057;-70
2023/07/27 08:38:13;;;;;;;284.67;261.92;;;;;;;;;;4996558;28;20077;-65
2023/07/27 08:40:40;;;;;;;267.17;248.65;;;;;;;;;;4998358;28;20132;-72
2023/07/27 08:43:08;;;;;;;272.85;249.07;;;;;;;;;;4999746;28;20058;-69
2023/07/27 08:45:36;;;;;;;282.77;260.02;;;;;;;;;;4999674;28;20045;-67
2023/07/27 08:48:02;;;;;;;272.95;251.13;;;;;;;;;;4999903;28;20054;-66
2023/07/27 08:50:31;;;;;;;280.70;259.25;;;;;;;;;;4998813;28;20101;-71
2023/07/27 08:52:57;;;;;;;289.20;262.35;;;;;;;;;;4998394;28;20459;-67
2023/07/27 08:55:24;;;;;;;280.88;259.98;;;;;;;;;;4997314;28;20051;-68
2023/07/27 08:57:50;;;;;;;297.48;271.02;;;;;;;;;;4999671;28;20045;-68
2023/07/27 09:00:18;;;;;;;266.80;245.55;;;;;;;;;;4999144;28;20041;-68
2023/07/27 09:02:45;;;;;;;297.17;267.52;;;;;;;;;;4977798;28;20061;-68
2023/07/27 09:05:15;;;;;;;290.80;266.38;;;;;;;;;;4978554;28;20129;-69
2023/07/27 09:07:42;;;;;;;277.25;255.93;;;;;;;;;;4981066;28;20122;-68
2023/07/27 09:10:09;;;;;;;286.20;264.55;;;;;;;;;;4972833;28;20045;-69
2023/07/27 09:12:36;;;;;;;290.27;266.33;;;;;;;;;;4980170;28;20105;-64
2023/07/27 09:15:07;;;;;;;298.20;271.10;;;;;;;;;;4980398;28;20042;-68
2023/07/27 09:17:34;;;;;;;292.85;269.27;;;;;;;;;;4978607;28;20051;-70
2023/07/27 09:20:00;;;;;;;282.63;259.52;;;;;;;;;;4979453;28;20050;-66
2023/07/27 09:22:27;;;;;;;279.95;257.80;;;;;;;;;;4980859;28;20039;-69
2023/07/27 09:24:56;;;;;;;286.65;259.95;;;;;;;;;;4977357;28;20420;-66
2023/07/27 09:27:23;;;;;;;275.70;251.85;;;;;;;;;;4980182;28;20571;-71
2023/07/27 09:29:56;;;;;;;276.00;250.15;;;;;;;;;;4978897;28;20059;-71
2023/07/27 09:32:23;;;;;;;268.42;246.27;;;;;;;;;;4979339;28;20465;-69
2023/07/27 09:34:54;;;;;;;272.92;248.50;;;;;;;;;;4975247;28;20047;-70
2023/07/27 09:37:24;;;;;;;268.35;246.30;;;;;;;;;;4981712;28;20054;-70
2023/07/27 09:40:04;;;;;;;267.60;243.73;;;;;;;;;;4980996;28;20094;-69
2023/07/27 09:42:32;;;;;;;263.80;242.68;;;;;;;;;;4978815;28;20055;-64
2023/07/27 09:44:58;;;;;;;274.85;250.02;;;;;;;;;;4983628;28;20042;-71
2023/07/27 09:47:30;;;;;;;274.60;250.00;;;;;;;;;;4986033;28;20049;-69
2023/07/27 09:50:03;;;;;;;279.08;255.00;;;;;;;;;;4982798;28;20130;-68
2023/07/27 09:52:30;;;;;;;286.35;262.77;;;;;;;;;;4982222;28;20043;-69
2023/07/27 09:54:57;;;;;;;281.17;256.02;;;;;;;;;;4980392;28;20034;-69
2023/07/27 09:57:25;;;;;;;279.90;256.15;;;;;;;;;;4983649;28;20058;-70
2023/07/27 09:59:52;;;;;;;295.23;261.75;;;;;;;;;;4982034;28;20053;-66
2023/07/27 10:02:19;;;;;;;254.65;233.25;;;;;;;;;;4991207;28;20040;-68
2023/07/27 10:04:57;;;;;;;260.75;237.88;;;;;;;;;;5001650;28;20054;-70
2023/07/27 10:07:25;;;;;;;251.95;230.70;;;;;;;;;;5000719;28;20046;-69
2023/07/27 10:10:16;;;;;;;241.93;223.68;;;;;;;;;;4999527;28;20041;-67
2023/07/27 10:12:42;;;;;;;266.85;244.40;;;;;;;;;;5000033;28;20054;-68
2023/07/27 10:15:24;;;;;;;252.90;236.55;;;;;;;;;;5005295;28;20134;-69
2023/07/27 10:17:54;;;;;;;283.58;254.32;;;;;;;;;;5002212;28;20143;-69
2023/07/27 10:20:23;;;;;;;267.48;243.73;;;;;;;;;;5000366;28;20043;-69
2023/07/27 10:22:52;;;;;;;257.75;233.73;;;;;;;;;;5002607;28;20067;-68
2023/07/27 10:25:19;;;;;;;258.10;236.43;;;;;;;;;;4998504;28;20053;-70
2023/07/27 10:27:58;;;;;;;247.48;226.90;;;;;;;;;;5002127;28;20061;-70
2023/07/27 10:30:24;;;;;;;260.00;236.73;;;;;;;;;;5001492;28;20043;-65
2023/07/27 10:33:07;;;;;;;273.48;245.02;;;;;;;;;;5000810;28;20479;-64
2023/07/27 10:36:00;;;;;;;258.85;236.38;;;;;;;;;;5001446;28;20046;-68
2023/07/27 10:38:26;;;;;;;272.75;248.00;;;;;;;;;;4999987;28;20072;-63
2023/07/27 10:40:53;;;;;;;262.02;237.95;;;;;;;;;;4998794;28;20518;-69
2023/07/27 10:43:19;;;;;;;258.88;237.18;;;;;;;;;;5001804;28;20105;-66
2023/07/27 10:45:51;;;;;;;266.10;244.13;;;;;;;;;;5002004;28;20053;-69
2023/07/27 10:48:18;;;;;;;279.08;253.27;;;;;;;;;;5002664;28;20061;-69
2023/07/27 10:50:44;;;;;;;282.77;255.23;;;;;;;;;;5000056;28;20491;-72
2023/07/27 10:53:11;;;;;;;264.52;244.63;;;;;;;;;;5000321;28;20050;-69
2023/07/27 10:55:39;;;;;;;284.38;261.10;;;;;;;;;;5001057;28;20033;-66
2023/07/27 10:58:07;;;;;;;280.52;259.10;;;;;;;;;;4998347;28;20049;-68
2023/07/27 11:00:34;;;;;;;287.88;264.80;;;;;;;;;;5000826;28;20042;-65
2023/07/27 11:03:01;;;;;;;287.08;260.48;;;;;;;;;;5000148;28;20045;-69
2023/07/27 11:05:27;;;;;;;286.52;262.48;;;;;;;;;;5000367;28;20046;-69
2023/07/27 11:08:01;;;;;;;270.70;248.52;;;;;;;;;;4990197;28;20132;-68
2023/07/27 11:10:30;;;;;;;273.15;247.65;;;;;;;;;;4998787;28;20425;-70
2023/07/27 11:12:57;;;;;;;267.95;244.02;;;;;;;;;;5003578;28;20153;-69
2023/07/27 11:15:24;;;;;;;271.02;247.45;;;;;;;;;;4998021;28;20043;-65
2023/07/27 11:17:53;;;;;;;292.08;261.02;;;;;;;;;;4994942;28;20050;-71
2023/07/27 11:20:21;;;;;;;298.08;275.08;;;;;;;;;;4999093;28;20042;-67
2023/07/27 11:22:48;;;;;;;302.17;275.25;;;;;;;;;;4999684;28;20209;-69
2023/07/27 11:25:15;;;;;;;300.38;275.60;;;;;;;;;;4997867;28;20524;-69
2023/07/27 11:27:41;;;;;;;303.50;280.42;;;;;;;;;;5000992;28;20121;-69
2023/07/27 11:30:12;;;;;;;310.90;288.00;;;;;;;;;;5000205;28;20502;-64
2023/07/27 11:32:38;;;;;;;322.02;292.75;;;;;;;;;;5000610;28;20053;-64
2023/07/27 11:35:05;;;;;;;307.77;284.75;;;;;;;;;;5000223;28;20030;-68
2023/07/27 11:37:32;;;;;;;322.38;297.20;;;;;;;;;;4999946;28;20052;-65
2023/07/27 11:39:59;;;;;;;324.63;298.65;;;;;;;;;;4997621;28;20522;-71
2023/07/27 11:42:30;;;;;;;332.50;304.10;;;;;;;;;;5000498;28;20049;-69
2023/07/27 11:44:56;;;;;;;325.85;295.63;;;;;;;;;;4999877;28;20804;-66
2023/07/27 11:47:23;;;;;;;309.30;286.08;;;;;;;;;;5003576;28;20053;-69
2023/07/27 11:49:50;;;;;;;303.42;278.50;;;;;;;;;;5000202;28;20498;-68
2023/07/27 11:52:17;;;;;;;302.80;276.98;;;;;;;;;;4997851;28;20045;-64
2023/07/27 11:54:44;;;;;;;301.70;275.95;;;;;;;;;;4996733;28;20042;-69
2023/07/27 11:57:14;;;;;;;308.25;282.98;;;;;;;;;;5000527;28;20097;-68
2023/07/27 11:59:41;;;;;;;314.98;288.90;;;;;;;;;;4997739;28;20060;-68
2023/07/27 12:02:07;;;;;;;294.80;271.90;;;;;;;;;;5002083;28;20050;-65
2023/07/27 12:04:34;;;;;;;306.85;282.15;;;;;;;;;;4998320;28;20488;-68
2023/07/27 12:07:00;;;;;;;310.50;282.55;;;;;;;;;;4999928;28;20770;-69
2023/07/27 12:09:27;;;;;;;311.23;286.17;;;;;;;;;;4999255;28;20108;-67
2023/07/27 12:11:54;;;;;;;310.30;281.20;;;;;;;;;;4997734;28;20046;-71
2023/07/27 12:14:20;;;;;;;309.08;285.15;;;;;;;;;;4999145;28;20125;-70
2023/07/27 12:16:47;;;;;;;323.67;296.08;;;;;;;;;;5000796;28;20050;-68
2023/07/27 12:19:17;;;;;;;316.70;292.27;;;;;;;;;;4998102;28;20056;-70
2023/07/27 12:21:48;;;;;;;330.55;301.55;;;;;;;;;;4984051;28;20046;-63
2023/07/27 12:24:17;;;;;;;327.42;296.02;;;;;;;;;;5000217;28;20038;-69
2023/07/27 12:26:46;;;;;;;334.23;302.45;;;;;;;;;;4997242;28;20432;-69
2023/07/27 12:29:16;;;;;;;325.52;298.08;;;;;;;;;;4999533;28;20046;-70
2023/07/27 12:31:45;;;;;;;318.02;292.15;;;;;;;;;;5000427;28;20065;-68
2023/07/27 12:34:15;;;;;;;318.70;293.63;;;;;;;;;;4997871;28;20141;-69
2023/07/27 12:36:45;;;;;;;318.50;289.95;;;;;;;;;;5000544;28;20045;-69
2023/07/27 12:39:14;;;;;;;328.08;296.10;;;;;;;;;;4998665;28;20129;-67
2023/07/27 12:41:41;;;;;;;311.23;286.40;;;;;;;;;;4996710;28;20488;-69
2023/07/27 12:44:28;;;;;;;328.23;300.83;;;;;;;;;;4997729;28;20057;-67
2023/07/27 12:46:55;;;;;;;318.65;291.40;;;;;;;;;;5001526;28;20042;-68
2023/07/27 12:49:21;;;;;;;321.52;296.40;;;;;;;;;;4995527;28;20046;-67
2023/07/27 12:51:48;;;;;;;318.55;290.58;;;;;;;;;;5001031;28;20045;-68
2023/07/27 12:54:14;;;;;;;337.38;305.02;;;;;;;;;;4998971;28;20035;-70
2023/07/27 12:56:42;;;;;;;306.42;282.30;;;;;;;;;;4974184;28;20072;-70
2023/07/27 12:59:08;;;;;;;308.10;284.17;;;;;;;;;;4979681;28;20484;-65
2023/07/27 13:01:35;;;;;;;313.38;289.63;;;;;;;;;;4998477;28;20038;-68
2023/07/27 13:04:03;;;;;;;314.63;290.00;;;;;;;;;;4999717;28;20046;-68
2023/07/27 13:06:29;;;;;;;310.80;286.92;;;;;;;;;;4999907;28;20045;-69
2023/07/27 13:09:00;;;;;;;321.70;292.40;;;;;;;;;;4988685;28;20046;-68
2023/07/27 13:11:26;;;;;;;301.75;279.73;;;;;;;;;;5000204;28;20054;-69
2023/07/27 13:13:53;;;;;;;302.08;279.75;;;;;;;;;;5002842;28;20050;-67
2023/07/27 13:16:20;;;;;;;305.83;280.50;;;;;;;;;;5003410;28;20439;-69
2023/07/27 13:18:46;;;;;;;308.48;282.73;;;;;;;;;;5002254;28;20085;-64
2023/07/27 13:21:13;;;;;;;298.02;275.13;;;;;;;;;;5002780;28;20077;-64
2023/07/27 13:23:39;;;;;;;300.98;276.90;;;;;;;;;;5001224;28;20048;-69
2023/07/27 13:26:08;;;;;;;292.63;270.92;;;;;;;;;;5000674;28;20066;-69
2023/07/27 13:28:35;;;;;;;290.45;268.77;;;;;;;;;;4982140;28;20041;-68
2023/07/27 13:31:01;;;;;;;296.02;274.50;;;;;;;;;;5004755;28;20514;-64
2023/07/27 13:33:28;;;;;;;307.70;280.52;;;;;;;;;;5001744;28;20041;-67
2023/07/27 13:35:54;;;;;;;305.20;275.27;;;;;;;;;;4998116;28;20065;-68
2023/07/27 13:38:21;;;;;;;295.55;270.73;;;;;;;;;;5000046;28;20102;-68
2023/07/27 13:40:48;;;;;;;283.20;259.77;;;;;;;;;;5001500;28;20050;-70
2023/07/27 13:43:14;;;;;;;298.38;274.75;;;;;;;;;;5002869;28;20372;-69
2023/07/27 13:45:41;;;;;;;289.95;267.70;;;;;;;;;;5002826;28;20046;-67
2023/07/27 13:48:07;;;;;;;296.92;272.88;;;;;;;;;;5002357;28;20049;-68
2023/07/27 13:50:36;;;;;;;278.58;256.73;;;;;;;;;;5002241;28;20038;-67
2023/07/27 13:53:03;;;;;;;291.40;268.13;;;;;;;;;;5001374;28;20077;-67
2023/07/27 13:55:30;;;;;;;300.50;274.48;;;;;;;;;;5001327;28;20050;-66
2023/07/27 13:57:57;;;;;;;292.83;270.02;;;;;;;;;;4992982;28;20078;-69